Alberton, Montana
Current Conditions -  °F | °C
As of 1:38 AM on Monday 22 Dec 2014 (Local Time) from KMSO Reporting Station
Light Rain Light Rain  
Wind Chill: 30°   Ceiling: 4600
Heat Index: 36°   Visibility: 10mi
Dew Point: 32°   Wind: 8mph
Humidity: 86%   Direction: 340°NNW
Pressure: 29.89"   Gusts: NA
Location:  47°N, 114.47°W
Report Text: KMSO 220838Z AUTO 34007KT 10SM -RA SCT030 BKN046 OVC110 02/00 A2989 RMK AO2 RAE04B36 P0000 T00220000 $
Loading
Personal Weather Stations






























Interactive Weather Map New forecast layout! Learn more

10-Day Weather Forecast

Advertisements
Track Severe Weather on mobile